sensor_id;sensor_type;location;lat;lon;timestamp;temperature;humidity
66088;DHT22;52872;52.994;6.940;2022-10-16T00:01:31;13.40;99.90
66088;DHT22;52872;52.994;6.940;2022-10-16T00:04:00;13.40;99.90
66088;DHT22;52872;52.994;6.940;2022-10-16T00:06:29;13.40;99.90
66088;DHT22;52872;52.994;6.940;2022-10-16T00:08:56;13.40;99.90
66088;DHT22;52872;52.994;6.940;2022-10-16T00:11:31;13.40;99.90
66088;DHT22;52872;52.994;6.940;2022-10-16T00:14:06;13.40;99.90
66088;DHT22;52872;52.994;6.940;2022-10-16T00:16:34;13.40;99.90
66088;DHT22;52872;52.994;6.940;2022-10-16T00:19:01;13.40;99.90
66088;DHT22;52872;52.994;6.940;2022-10-16T00:21:30;13.40;99.90
66088;DHT22;52872;52.994;6.940;2022-10-16T00:24:00;13.40;99.90
66088;DHT22;52872;52.994;6.940;2022-10-16T00:26:29;13.40;99.90
66088;DHT22;52872;52.994;6.940;2022-10-16T00:28:56;13.40;99.90
66088;DHT22;52872;52.994;6.940;2022-10-16T00:31:24;13.40;99.90
66088;DHT22;52872;52.994;6.940;2022-10-16T00:33:51;13.40;99.90
66088;DHT22;52872;52.994;6.940;2022-10-16T00:36:20;13.40;99.90
66088;DHT22;52872;52.994;6.940;2022-10-16T00:38:50;13.40;99.90
66088;DHT22;52872;52.994;6.940;2022-10-16T00:41:20;13.40;99.90
66088;DHT22;52872;52.994;6.940;2022-10-16T00:43:50;13.40;99.90
66088;DHT22;52872;52.994;6.940;2022-10-16T00:46:23;13.40;99.90
66088;DHT22;52872;52.994;6.940;2022-10-16T00:49:05;13.50;99.90
66088;DHT22;52872;52.994;6.940;2022-10-16T00:51:45;13.40;99.90
66088;DHT22;52872;52.994;6.940;2022-10-16T00:54:26;13.40;99.90
66088;DHT22;52872;52.994;6.940;2022-10-16T00:56:56;13.40;99.90
66088;DHT22;52872;52.994;6.940;2022-10-16T00:59:33;13.40;99.90
66088;DHT22;52872;52.994;6.940;2022-10-16T01:02:04;13.30;99.90
66088;DHT22;52872;52.994;6.940;2022-10-16T01:04:35;13.30;99.90
66088;DHT22;52872;52.994;6.940;2022-10-16T01:07:12;13.40;99.90
66088;DHT22;52872;52.994;6.940;2022-10-16T01:12:47;13.40;99.90
66088;DHT22;52872;52.994;6.940;2022-10-16T01:21:08;13.30;99.90
66088;DHT22;52872;52.994;6.940;2022-10-16T01:29:57;13.40;99.90
66088;DHT22;52872;52.994;6.940;2022-10-16T01:35:07;13.50;99.90
66088;DHT22;52872;52.994;6.940;2022-10-16T01:37:48;13.50;99.90
66088;DHT22;52872;52.994;6.940;2022-10-16T01:40:19;13.60;99.90
66088;DHT22;52872;52.994;6.940;2022-10-16T01:42:52;13.60;99.90
66088;DHT22;52872;52.994;6.940;2022-10-16T01:45:22;13.60;99.90
66088;DHT22;52872;52.994;6.940;2022-10-16T01:47:49;13.60;99.90
66088;DHT22;52872;52.994;6.940;2022-10-16T01:50:19;13.60;99.90
66088;DHT22;52872;52.994;6.940;2022-10-16T01:52:49;13.60;99.90
66088;DHT22;52872;52.994;6.940;2022-10-16T01:55:22;13.70;99.90
66088;DHT22;52872;52.994;6.940;2022-10-16T01:57:51;13.70;99.90
66088;DHT22;52872;52.994;6.940;2022-10-16T02:00:21;13.70;99.90
66088;DHT22;52872;52.994;6.940;2022-10-16T02:02:51;13.80;99.90
66088;DHT22;52872;52.994;6.940;2022-10-16T02:05:37;13.80;99.90
66088;DHT22;52872;52.994;6.940;2022-10-16T02:08:06;13.80;99.90
66088;DHT22;52872;52.994;6.940;2022-10-16T02:10:34;13.80;99.90
66088;DHT22;52872;52.994;6.940;2022-10-16T02:13:10;13.80;99.90
66088;DHT22;52872;52.994;6.940;2022-10-16T02:15:39;13.90;99.90
66088;DHT22;52872;52.994;6.940;2022-10-16T02:18:07;13.90;99.90
66088;DHT22;52872;52.994;6.940;2022-10-16T02:20:43;13.90;99.90
66088;DHT22;52872;52.994;6.940;2022-10-16T02:23:22;14.00;99.90
66088;DHT22;52872;52.994;6.940;2022-10-16T02:25:52;14.00;99.90
66088;DHT22;52872;52.994;6.940;2022-10-16T02:28:24;14.00;99.90
66088;DHT22;52872;52.994;6.940;2022-10-16T02:30:57;14.10;99.90
66088;DHT22;52872;52.994;6.940;2022-10-16T02:33:26;14.10;99.90
66088;DHT22;52872;52.994;6.940;2022-10-16T02:35:55;14.10;99.90
66088;DHT22;52872;52.994;6.940;2022-10-16T02:38:23;14.10;99.90
66088;DHT22;52872;52.994;6.940;2022-10-16T02:40:50;14.20;99.90
66088;DHT22;52872;52.994;6.940;2022-10-16T02:43:17;14.20;99.90
66088;DHT22;52872;52.994;6.940;2022-10-16T02:45:45;14.20;99.90
66088;DHT22;52872;52.994;6.940;2022-10-16T02:48:12;14.20;99.90
66088;DHT22;52872;52.994;6.940;2022-10-16T02:50:38;14.30;99.90
66088;DHT22;52872;52.994;6.940;2022-10-16T02:53:05;14.30;99.90
66088;DHT22;52872;52.994;6.940;2022-10-16T02:55:32;14.20;99.90
66088;DHT22;52872;52.994;6.940;2022-10-16T02:57:59;14.30;99.90
66088;DHT22;52872;52.994;6.940;2022-10-16T03:00:26;14.30;99.90
66088;DHT22;52872;52.994;6.940;2022-10-16T03:02:53;14.30;99.90
66088;DHT22;52872;52.994;6.940;2022-10-16T03:05:20;14.40;99.90
66088;DHT22;52872;52.994;6.940;2022-10-16T03:07:52;14.30;99.90
66088;DHT22;52872;52.994;6.940;2022-10-16T03:10:19;14.40;99.90
66088;DHT22;52872;52.994;6.940;2022-10-16T03:12:46;14.40;99.90
66088;DHT22;52872;52.994;6.940;2022-10-16T03:15:13;14.40;99.90
66088;DHT22;52872;52.994;6.940;2022-10-16T03:17:40;14.40;99.90
66088;DHT22;52872;52.994;6.940;2022-10-16T03:20:07;14.40;99.90
66088;DHT22;52872;52.994;6.940;2022-10-16T03:22:34;14.40;99.90
66088;DHT22;52872;52.994;6.940;2022-10-16T03:25:01;14.40;99.90
66088;DHT22;52872;52.994;6.940;2022-10-16T03:27:28;14.50;99.90
66088;DHT22;52872;52.994;6.940;2022-10-16T03:29:55;14.50;99.90
66088;DHT22;52872;52.994;6.940;2022-10-16T03:32:22;14.50;99.90
66088;DHT22;52872;52.994;6.940;2022-10-16T03:34:51;14.40;99.90
66088;DHT22;52872;52.994;6.940;2022-10-16T03:37:20;14.40;99.90
66088;DHT22;52872;52.994;6.940;2022-10-16T03:39:47;14.50;99.90
66088;DHT22;52872;52.994;6.940;2022-10-16T03:42:14;14.40;99.90
66088;DHT22;52872;52.994;6.940;2022-10-16T03:44:41;14.40;99.90
66088;DHT22;52872;52.994;6.940;2022-10-16T03:47:08;14.50;99.90
66088;DHT22;52872;52.994;6.940;2022-10-16T03:49:35;14.40;99.90
66088;DHT22;52872;52.994;6.940;2022-10-16T03:52:02;14.50;99.90
66088;DHT22;52872;52.994;6.940;2022-10-16T03:54:29;14.50;99.90
66088;DHT22;52872;52.994;6.940;2022-10-16T03:56:56;14.50;99.90
66088;DHT22;52872;52.994;6.940;2022-10-16T03:59:23;14.50;99.90
66088;DHT22;52872;52.994;6.940;2022-10-16T04:01:50;14.50;99.90
66088;DHT22;52872;52.994;6.940;2022-10-16T04:04:17;14.40;99.90
66088;DHT22;52872;52.994;6.940;2022-10-16T04:06:43;14.50;99.90
66088;DHT22;52872;52.994;6.940;2022-10-16T04:09:10;14.40;99.90
66088;DHT22;52872;52.994;6.940;2022-10-16T04:11:37;14.40;99.90
66088;DHT22;52872;52.994;6.940;2022-10-16T04:14:05;14.40;99.90
66088;DHT22;52872;52.994;6.940;2022-10-16T04:16:32;14.40;99.90
66088;DHT22;52872;52.994;6.940;2022-10-16T04:18:59;14.40;99.90
66088;DHT22;52872;52.994;6.940;2022-10-16T04:21:26;14.30;99.90
66088;DHT22;52872;52.994;6.940;2022-10-16T04:23:53;14.20;99.90
66088;DHT22;52872;52.994;6.940;2022-10-16T04:26:20;14.20;99.90
66088;DHT22;52872;52.994;6.940;2022-10-16T04:28:47;14.20;99.90
66088;DHT22;52872;52.994;6.940;2022-10-16T04:31:14;14.10;99.90
66088;DHT22;52872;52.994;6.940;2022-10-16T04:33:44;14.10;99.90
66088;DHT22;52872;52.994;6.940;2022-10-16T04:36:11;14.00;99.90
66088;DHT22;52872;52.994;6.940;2022-10-16T04:38:38;14.00;99.90
66088;DHT22;52872;52.994;6.940;2022-10-16T04:41:07;13.90;99.90
66088;DHT22;52872;52.994;6.940;2022-10-16T04:43:34;14.00;99.90
66088;DHT22;52872;52.994;6.940;2022-10-16T04:46:01;14.00;99.90
66088;DHT22;52872;52.994;6.940;2022-10-16T04:48:28;14.00;99.90
66088;DHT22;52872;52.994;6.940;2022-10-16T04:50:55;14.00;99.90
66088;DHT22;52872;52.994;6.940;2022-10-16T04:53:22;14.00;99.90
66088;DHT22;52872;52.994;6.940;2022-10-16T04:55:49;14.00;99.90
66088;DHT22;52872;52.994;6.940;2022-10-16T04:58:17;14.00;99.90
66088;DHT22;52872;52.994;6.940;2022-10-16T05:00:44;13.90;99.90
66088;DHT22;52872;52.994;6.940;2022-10-16T05:03:13;13.90;99.90
66088;DHT22;52872;52.994;6.940;2022-10-16T05:05:44;13.90;99.90
66088;DHT22;52872;52.994;6.940;2022-10-16T05:08:15;14.00;99.90
66088;DHT22;52872;52.994;6.940;2022-10-16T05:10:43;14.00;99.90
66088;DHT22;52872;52.994;6.940;2022-10-16T05:13:10;14.00;99.90
66088;DHT22;52872;52.994;6.940;2022-10-16T05:15:37;14.00;99.90
66088;DHT22;52872;52.994;6.940;2022-10-16T05:18:04;14.00;99.90
66088;DHT22;52872;52.994;6.940;2022-10-16T05:20:31;14.00;99.90
66088;DHT22;52872;52.994;6.940;2022-10-16T05:22:58;14.00;99.90
66088;DHT22;52872;52.994;6.940;2022-10-16T05:25:25;14.10;99.90
66088;DHT22;52872;52.994;6.940;2022-10-16T05:27:52;14.10;99.90
66088;DHT22;52872;52.994;6.940;2022-10-16T05:30:19;14.10;99.90
66088;DHT22;52872;52.994;6.940;2022-10-16T05:32:48;14.10;99.90
66088;DHT22;52872;52.994;6.940;2022-10-16T05:35:16;14.20;99.90
66088;DHT22;52872;52.994;6.940;2022-10-16T05:37:44;14.20;99.90
66088;DHT22;52872;52.994;6.940;2022-10-16T05:40:11;14.20;99.90
66088;DHT22;52872;52.994;6.940;2022-10-16T05:42:40;14.20;99.90
66088;DHT22;52872;52.994;6.940;2022-10-16T05:45:09;14.20;99.90
66088;DHT22;52872;52.994;6.940;2022-10-16T05:47:37;14.20;99.90
66088;DHT22;52872;52.994;6.940;2022-10-16T05:50:04;14.20;99.90
66088;DHT22;52872;52.994;6.940;2022-10-16T05:52:31;14.20;99.90
66088;DHT22;52872;52.994;6.940;2022-10-16T05:54:58;14.20;99.90
66088;DHT22;52872;52.994;6.940;2022-10-16T05:57:25;14.10;99.90
66088;DHT22;52872;52.994;6.940;2022-10-16T05:59:52;14.10;99.90
66088;DHT22;52872;52.994;6.940;2022-10-16T06:02:19;14.20;99.90
66088;DHT22;52872;52.994;6.940;2022-10-16T06:04:46;14.20;99.90
66088;DHT22;52872;52.994;6.940;2022-10-16T06:07:13;14.20;99.90
66088;DHT22;52872;52.994;6.940;2022-10-16T06:09:40;14.20;99.90
66088;DHT22;52872;52.994;6.940;2022-10-16T06:12:07;14.20;99.90
66088;DHT22;52872;52.994;6.940;2022-10-16T06:14:34;14.30;99.90
66088;DHT22;52872;52.994;6.940;2022-10-16T06:17:00;14.30;99.90
66088;DHT22;52872;52.994;6.940;2022-10-16T06:19:27;14.40;99.90
66088;DHT22;52872;52.994;6.940;2022-10-16T06:21:54;14.30;99.90
66088;DHT22;52872;52.994;6.940;2022-10-16T06:24:21;14.30;99.90
66088;DHT22;52872;52.994;6.940;2022-10-16T06:26:48;14.30;99.90
66088;DHT22;52872;52.994;6.940;2022-10-16T06:29:15;14.40;99.90
66088;DHT22;52872;52.994;6.940;2022-10-16T06:31:42;14.30;99.90
66088;DHT22;52872;52.994;6.940;2022-10-16T06:34:10;14.40;99.90
66088;DHT22;52872;52.994;6.940;2022-10-16T06:36:38;14.40;99.90
66088;DHT22;52872;52.994;6.940;2022-10-16T06:39:06;14.40;99.90
66088;DHT22;52872;52.994;6.940;2022-10-16T06:41:34;14.40;99.90
66088;DHT22;52872;52.994;6.940;2022-10-16T06:44:14;14.40;99.90
66088;DHT22;52872;52.994;6.940;2022-10-16T06:46:41;14.40;99.90
66088;DHT22;52872;52.994;6.940;2022-10-16T06:49:08;14.50;99.90
66088;DHT22;52872;52.994;6.940;2022-10-16T06:51:35;14.60;99.90
66088;DHT22;52872;52.994;6.940;2022-10-16T06:54:04;14.60;99.90
66088;DHT22;52872;52.994;6.940;2022-10-16T06:56:32;14.60;99.90
66088;DHT22;52872;52.994;6.940;2022-10-16T06:59:00;14.60;99.90
66088;DHT22;52872;52.994;6.940;2022-10-16T07:01:27;14.70;99.90
66088;DHT22;52872;52.994;6.940;2022-10-16T07:03:54;14.70;99.90
66088;DHT22;52872;52.994;6.940;2022-10-16T07:06:25;14.80;99.90
66088;DHT22;52872;52.994;6.940;2022-10-16T07:08:53;14.90;99.90
66088;DHT22;52872;52.994;6.940;2022-10-16T07:11:21;14.90;99.90
66088;DHT22;52872;52.994;6.940;2022-10-16T07:13:49;14.90;99.90
66088;DHT22;52872;52.994;6.940;2022-10-16T07:16:20;15.00;99.90
66088;DHT22;52872;52.994;6.940;2022-10-16T07:18:48;15.00;99.90
66088;DHT22;52872;52.994;6.940;2022-10-16T07:21:18;15.00;99.90
66088;DHT22;52872;52.994;6.940;2022-10-16T07:23:50;15.10;99.90
66088;DHT22;52872;52.994;6.940;2022-10-16T07:26:18;15.20;99.90
66088;DHT22;52872;52.994;6.940;2022-10-16T07:28:45;15.20;99.90
66088;DHT22;52872;52.994;6.940;2022-10-16T07:31:13;15.20;99.90
66088;DHT22;52872;52.994;6.940;2022-10-16T07:33:43;15.30;99.90
66088;DHT22;52872;52.994;6.940;2022-10-16T07:36:12;15.30;99.90
66088;DHT22;52872;52.994;6.940;2022-10-16T07:38:42;15.40;99.90
66088;DHT22;52872;52.994;6.940;2022-10-16T07:41:12;15.40;99.90
66088;DHT22;52872;52.994;6.940;2022-10-16T07:43:39;15.50;99.90
66088;DHT22;52872;52.994;6.940;2022-10-16T07:46:06;15.50;99.90
66088;DHT22;52872;52.994;6.940;2022-10-16T07:48:34;15.60;99.90
66088;DHT22;52872;52.994;6.940;2022-10-16T07:51:03;15.70;99.90
66088;DHT22;52872;52.994;6.940;2022-10-16T07:53:31;15.70;99.90
66088;DHT22;52872;52.994;6.940;2022-10-16T07:55:59;15.80;99.90
66088;DHT22;52872;52.994;6.940;2022-10-16T07:58:30;15.80;99.90
66088;DHT22;52872;52.994;6.940;2022-10-16T08:00:57;16.00;99.90
66088;DHT22;52872;52.994;6.940;2022-10-16T08:03:25;16.10;99.90
66088;DHT22;52872;52.994;6.940;2022-10-16T08:05:52;16.20;99.90
66088;DHT22;52872;52.994;6.940;2022-10-16T08:08:19;16.20;99.90
66088;DHT22;52872;52.994;6.940;2022-10-16T08:10:46;16.20;99.90
66088;DHT22;52872;52.994;6.940;2022-10-16T08:13:13;16.30;99.90
66088;DHT22;52872;52.994;6.940;2022-10-16T08:15:42;16.40;99.90
66088;DHT22;52872;52.994;6.940;2022-10-16T08:18:10;16.50;99.90
66088;DHT22;52872;52.994;6.940;2022-10-16T08:20:38;16.60;99.90
66088;DHT22;52872;52.994;6.940;2022-10-16T08:23:06;16.60;99.90
66088;DHT22;52872;52.994;6.940;2022-10-16T08:25:37;16.70;99.90
66088;DHT22;52872;52.994;6.940;2022-10-16T08:28:05;16.80;99.90
66088;DHT22;52872;52.994;6.940;2022-10-16T08:30:33;16.80;99.90
66088;DHT22;52872;52.994;6.940;2022-10-16T08:33:00;16.90;99.90
66088;DHT22;52872;52.994;6.940;2022-10-16T08:35:28;17.00;99.90
66088;DHT22;52872;52.994;6.940;2022-10-16T08:37:55;17.00;99.90
66088;DHT22;52872;52.994;6.940;2022-10-16T08:40:31;17.00;99.90
66088;DHT22;52872;52.994;6.940;2022-10-16T08:51:09;17.20;99.90
66088;DHT22;52872;52.994;6.940;2022-10-16T08:53:45;17.00;99.90
66088;DHT22;52872;52.994;6.940;2022-10-16T08:56:17;17.00;99.90
66088;DHT22;52872;52.994;6.940;2022-10-16T08:58:46;16.90;99.90
66088;DHT22;52872;52.994;6.940;2022-10-16T09:01:20;17.00;99.90
66088;DHT22;52872;52.994;6.940;2022-10-16T09:06:59;17.20;99.90
66088;DHT22;52872;52.994;6.940;2022-10-16T09:12:22;17.30;99.90
66088;DHT22;52872;52.994;6.940;2022-10-16T09:18:09;17.30;99.90
66088;DHT22;52872;52.994;6.940;2022-10-16T09:20:49;17.30;99.90
66088;DHT22;52872;52.994;6.940;2022-10-16T09:23:22;17.30;99.90
66088;DHT22;52872;52.994;6.940;2022-10-16T09:25:52;17.30;99.90
66088;DHT22;52872;52.994;6.940;2022-10-16T09:28:20;17.30;99.90
66088;DHT22;52872;52.994;6.940;2022-10-16T09:30:48;17.40;99.90
66088;DHT22;52872;52.994;6.940;2022-10-16T09:33:19;17.50;99.90
66088;DHT22;52872;52.994;6.940;2022-10-16T09:35:49;17.50;99.90
66088;DHT22;52872;52.994;6.940;2022-10-16T09:38:25;17.50;99.90
66088;DHT22;52872;52.994;6.940;2022-10-16T09:40:53;17.70;99.90
66088;DHT22;52872;52.994;6.940;2022-10-16T09:48:51;17.80;99.90
66088;DHT22;52872;52.994;6.940;2022-10-16T09:51:22;17.80;99.90
66088;DHT22;52872;52.994;6.940;2022-10-16T09:53:58;17.90;99.90
66088;DHT22;52872;52.994;6.940;2022-10-16T09:56:33;18.00;99.90
66088;DHT22;52872;52.994;6.940;2022-10-16T10:04:08;18.20;99.90
66088;DHT22;52872;52.994;6.940;2022-10-16T10:06:50;18.20;99.90
66088;DHT22;52872;52.994;6.940;2022-10-16T10:11:58;18.40;99.90
66088;DHT22;52872;52.994;6.940;2022-10-16T10:14:46;18.50;99.90
66088;DHT22;52872;52.994;6.940;2022-10-16T10:17:24;18.70;99.90
66088;DHT22;52872;52.994;6.940;2022-10-16T10:19:57;18.90;99.90
66088;DHT22;52872;52.994;6.940;2022-10-16T10:22:40;19.00;99.90
66088;DHT22;52872;52.994;6.940;2022-10-16T10:31:01;19.70;99.90
66088;DHT22;52872;52.994;6.940;2022-10-16T10:39:08;20.10;99.90
66088;DHT22;52872;52.994;6.940;2022-10-16T10:47:12;20.00;99.00
66088;DHT22;52872;52.994;6.940;2022-10-16T10:53:10;19.90;98.40
66088;DHT22;52872;52.994;6.940;2022-10-16T10:55:46;20.00;98.90
66088;DHT22;52872;52.994;6.940;2022-10-16T11:00:47;20.20;98.60
66088;DHT22;52872;52.994;6.940;2022-10-16T11:06:16;20.30;98.10
66088;DHT22;52872;52.994;6.940;2022-10-16T11:08:51;20.20;97.90
66088;DHT22;52872;52.994;6.940;2022-10-16T11:11:37;20.30;97.90
66088;DHT22;52872;52.994;6.940;2022-10-16T11:14:26;20.30;97.30
66088;DHT22;52872;52.994;6.940;2022-10-16T11:17:01;20.30;97.50
66088;DHT22;52872;52.994;6.940;2022-10-16T11:28:01;20.10;97.40
66088;DHT22;52872;52.994;6.940;2022-10-16T11:30:26;20.00;97.30
66088;DHT22;52872;52.994;6.940;2022-10-16T11:35:48;20.10;97.50
66088;DHT22;52872;52.994;6.940;2022-10-16T11:46:34;20.60;96.30
66088;DHT22;52872;52.994;6.940;2022-10-16T11:49:16;20.60;96.30
66088;DHT22;52872;52.994;6.940;2022-10-16T11:54:59;20.60;95.30
66088;DHT22;52872;52.994;6.940;2022-10-16T11:57:33;20.80;95.60
66088;DHT22;52872;52.994;6.940;2022-10-16T12:00:09;20.80;95.70
66088;DHT22;52872;52.994;6.940;2022-10-16T12:08:13;20.70;94.90
66088;DHT22;52872;52.994;6.940;2022-10-16T12:10:43;20.60;94.50
66088;DHT22;52872;52.994;6.940;2022-10-16T12:13:33;20.40;94.40
66088;DHT22;52872;52.994;6.940;2022-10-16T12:18:45;20.10;94.90
66088;DHT22;52872;52.994;6.940;2022-10-16T12:21:14;19.90;95.30
66088;DHT22;52872;52.994;6.940;2022-10-16T12:23:53;19.70;95.80
66088;DHT22;52872;52.994;6.940;2022-10-16T12:26:29;19.70;96.00
66088;DHT22;52872;52.994;6.940;2022-10-16T12:29:08;19.60;96.30
66088;DHT22;52872;52.994;6.940;2022-10-16T12:31:47;19.50;96.40
66088;DHT22;52872;52.994;6.940;2022-10-16T12:34:41;19.60;96.40
66088;DHT22;52872;52.994;6.940;2022-10-16T12:37:15;19.70;96.40
66088;DHT22;52872;52.994;6.940;2022-10-16T12:39:47;19.70;95.90
66088;DHT22;52872;52.994;6.940;2022-10-16T12:44:55;20.00;95.40
66088;DHT22;52872;52.994;6.940;2022-10-16T12:49:59;20.10;95.60
66088;DHT22;52872;52.994;6.940;2022-10-16T12:52:39;19.90;95.60
66088;DHT22;52872;52.994;6.940;2022-10-16T12:55:18;19.90;95.60
66088;DHT22;52872;52.994;6.940;2022-10-16T13:22:37;19.10;97.00
66088;DHT22;52872;52.994;6.940;2022-10-16T13:28:01;19.10;97.40
66088;DHT22;52872;52.994;6.940;2022-10-16T13:30:30;19.20;97.00
66088;DHT22;52872;52.994;6.940;2022-10-16T13:33:14;19.30;97.10
66088;DHT22;52872;52.994;6.940;2022-10-16T13:35:50;19.30;96.60
66088;DHT22;52872;52.994;6.940;2022-10-16T13:38:20;19.30;96.60
66088;DHT22;52872;52.994;6.940;2022-10-16T13:41:05;19.20;96.10
66088;DHT22;52872;52.994;6.940;2022-10-16T13:43:58;19.30;95.80
66088;DHT22;52872;52.994;6.940;2022-10-16T13:46:25;19.30;94.90
66088;DHT22;52872;52.994;6.940;2022-10-16T13:51:24;19.20;95.10
66088;DHT22;52872;52.994;6.940;2022-10-16T13:53:51;19.20;95.20
66088;DHT22;52872;52.994;6.940;2022-10-16T13:56:20;19.30;95.20
66088;DHT22;52872;52.994;6.940;2022-10-16T13:59:27;19.30;95.10
66088;DHT22;52872;52.994;6.940;2022-10-16T14:02:00;19.50;94.90
66088;DHT22;52872;52.994;6.940;2022-10-16T14:04:33;19.40;95.10
66088;DHT22;52872;52.994;6.940;2022-10-16T14:07:00;19.40;94.70
66088;DHT22;52872;52.994;6.940;2022-10-16T14:09:29;19.40;94.50
66088;DHT22;52872;52.994;6.940;2022-10-16T14:12:01;19.50;94.50
66088;DHT22;52872;52.994;6.940;2022-10-16T14:14:35;19.50;94.30
66088;DHT22;52872;52.994;6.940;2022-10-16T14:17:06;19.60;94.30
66088;DHT22;52872;52.994;6.940;2022-10-16T14:19:39;19.60;94.80
66088;DHT22;52872;52.994;6.940;2022-10-16T14:24:52;19.60;95.10
66088;DHT22;52872;52.994;6.940;2022-10-16T14:27:32;19.40;95.20
66088;DHT22;52872;52.994;6.940;2022-10-16T14:30:25;19.50;95.20
66088;DHT22;52872;52.994;6.940;2022-10-16T14:32:58;19.50;95.40
66088;DHT22;52872;52.994;6.940;2022-10-16T14:35:36;19.40;95.60
66088;DHT22;52872;52.994;6.940;2022-10-16T14:38:04;19.30;95.60
66088;DHT22;52872;52.994;6.940;2022-10-16T14:40:34;19.30;95.80
66088;DHT22;52872;52.994;6.940;2022-10-16T14:43:02;19.20;96.00
66088;DHT22;52872;52.994;6.940;2022-10-16T14:45:32;19.10;96.20
66088;DHT22;52872;52.994;6.940;2022-10-16T14:48:06;19.10;96.40
66088;DHT22;52872;52.994;6.940;2022-10-16T14:50:43;19.30;96.60
66088;DHT22;52872;52.994;6.940;2022-10-16T14:53:13;19.20;96.60
66088;DHT22;52872;52.994;6.940;2022-10-16T14:55:41;19.30;96.60
66088;DHT22;52872;52.994;6.940;2022-10-16T14:58:27;19.40;96.70
66088;DHT22;52872;52.994;6.940;2022-10-16T15:00:55;19.50;96.70
66088;DHT22;52872;52.994;6.940;2022-10-16T15:03:22;19.40;96.80
66088;DHT22;52872;52.994;6.940;2022-10-16T15:05:49;19.40;97.00
66088;DHT22;52872;52.994;6.940;2022-10-16T15:08:16;19.40;97.10
66088;DHT22;52872;52.994;6.940;2022-10-16T15:10:44;19.40;97.10
66088;DHT22;52872;52.994;6.940;2022-10-16T15:13:14;19.30;97.10
66088;DHT22;52872;52.994;6.940;2022-10-16T15:15:45;19.30;97.20
66088;DHT22;52872;52.994;6.940;2022-10-16T15:18:13;19.30;97.70
66088;DHT22;52872;52.994;6.940;2022-10-16T15:20:41;19.30;97.60
66088;DHT22;52872;52.994;6.940;2022-10-16T15:23:17;19.20;97.80
66088;DHT22;52872;52.994;6.940;2022-10-16T15:25:50;19.20;97.90
66088;DHT22;52872;52.994;6.940;2022-10-16T15:28:18;19.10;98.00
66088;DHT22;52872;52.994;6.940;2022-10-16T15:30:46;19.00;98.10
66088;DHT22;52872;52.994;6.940;2022-10-16T15:33:18;18.90;98.30
66088;DHT22;52872;52.994;6.940;2022-10-16T15:35:50;18.90;98.30
66088;DHT22;52872;52.994;6.940;2022-10-16T15:38:19;18.70;98.40
66088;DHT22;52872;52.994;6.940;2022-10-16T15:40:47;18.70;98.60
66088;DHT22;52872;52.994;6.940;2022-10-16T15:43:15;18.60;98.60
66088;DHT22;52872;52.994;6.940;2022-10-16T15:45:42;18.60;98.70
66088;DHT22;52872;52.994;6.940;2022-10-16T15:48:11;18.50;98.80
66088;DHT22;52872;52.994;6.940;2022-10-16T15:50:39;18.50;99.00
66088;DHT22;52872;52.994;6.940;2022-10-16T15:53:07;18.30;99.50
66088;DHT22;52872;52.994;6.940;2022-10-16T15:55:34;18.30;99.90
66088;DHT22;52872;52.994;6.940;2022-10-16T15:58:03;18.20;99.90
66088;DHT22;52872;52.994;6.940;2022-10-16T16:00:30;18.10;99.90
66088;DHT22;52872;52.994;6.940;2022-10-16T16:02:56;18.00;99.90
66088;DHT22;52872;52.994;6.940;2022-10-16T16:05:23;17.90;99.90
66088;DHT22;52872;52.994;6.940;2022-10-16T16:07:50;17.80;99.90
66088;DHT22;52872;52.994;6.940;2022-10-16T16:10:18;17.70;99.90
66088;DHT22;52872;52.994;6.940;2022-10-16T16:12:48;17.60;99.90
66088;DHT22;52872;52.994;6.940;2022-10-16T16:15:21;17.60;99.90
66088;DHT22;52872;52.994;6.940;2022-10-16T16:17:48;17.50;99.90
66088;DHT22;52872;52.994;6.940;2022-10-16T16:20:15;17.40;99.90
66088;DHT22;52872;52.994;6.940;2022-10-16T16:22:42;17.30;99.90
66088;DHT22;52872;52.994;6.940;2022-10-16T16:25:10;17.30;99.90
66088;DHT22;52872;52.994;6.940;2022-10-16T16:27:37;17.20;99.90
66088;DHT22;52872;52.994;6.940;2022-10-16T16:30:10;17.10;99.90
66088;DHT22;52872;52.994;6.940;2022-10-16T16:32:41;17.10;99.90
66088;DHT22;52872;52.994;6.940;2022-10-16T16:35:09;17.00;99.90
66088;DHT22;52872;52.994;6.940;2022-10-16T16:37:36;16.90;99.90
66088;DHT22;52872;52.994;6.940;2022-10-16T16:40:03;16.80;99.90
66088;DHT22;52872;52.994;6.940;2022-10-16T16:42:30;16.80;99.90
66088;DHT22;52872;52.994;6.940;2022-10-16T16:44:58;16.70;99.90
66088;DHT22;52872;52.994;6.940;2022-10-16T16:47:24;16.60;99.90
66088;DHT22;52872;52.994;6.940;2022-10-16T16:49:52;16.60;99.90
66088;DHT22;52872;52.994;6.940;2022-10-16T16:52:19;16.50;99.90
66088;DHT22;52872;52.994;6.940;2022-10-16T16:54:47;16.50;99.90
66088;DHT22;52872;52.994;6.940;2022-10-16T16:57:19;16.40;99.90
66088;DHT22;52872;52.994;6.940;2022-10-16T16:59:46;16.30;99.90
66088;DHT22;52872;52.994;6.940;2022-10-16T17:02:13;16.30;99.90
66088;DHT22;52872;52.994;6.940;2022-10-16T17:04:40;16.20;99.90
66088;DHT22;52872;52.994;6.940;2022-10-16T17:07:07;16.10;99.90
66088;DHT22;52872;52.994;6.940;2022-10-16T17:09:34;16.10;99.90
66088;DHT22;52872;52.994;6.940;2022-10-16T17:12:01;16.00;99.90
66088;DHT22;52872;52.994;6.940;2022-10-16T17:14:28;16.00;99.90
66088;DHT22;52872;52.994;6.940;2022-10-16T17:16:55;15.90;99.90
66088;DHT22;52872;52.994;6.940;2022-10-16T17:19:22;15.90;99.90
66088;DHT22;52872;52.994;6.940;2022-10-16T17:21:50;15.80;99.90
66088;DHT22;52872;52.994;6.940;2022-10-16T17:24:18;15.70;99.90
66088;DHT22;52872;52.994;6.940;2022-10-16T17:26:47;15.70;99.90
66088;DHT22;52872;52.994;6.940;2022-10-16T17:29:16;15.60;99.90
66088;DHT22;52872;52.994;6.940;2022-10-16T17:31:44;15.50;99.90
66088;DHT22;52872;52.994;6.940;2022-10-16T17:34:12;15.40;99.90
66088;DHT22;52872;52.994;6.940;2022-10-16T17:36:40;15.30;99.90
66088;DHT22;52872;52.994;6.940;2022-10-16T17:39:12;15.20;99.90
66088;DHT22;52872;52.994;6.940;2022-10-16T17:41:39;15.20;99.90
66088;DHT22;52872;52.994;6.940;2022-10-16T17:44:06;15.10;99.90
66088;DHT22;52872;52.994;6.940;2022-10-16T17:46:34;15.00;99.90
66088;DHT22;52872;52.994;6.940;2022-10-16T17:49:08;14.90;99.90
66088;DHT22;52872;52.994;6.940;2022-10-16T17:51:35;15.00;99.90
66088;DHT22;52872;52.994;6.940;2022-10-16T17:54:02;14.90;99.90
66088;DHT22;52872;52.994;6.940;2022-10-16T17:56:30;14.90;99.90
66088;DHT22;52872;52.994;6.940;2022-10-16T17:58:59;14.90;99.90
66088;DHT22;52872;52.994;6.940;2022-10-16T18:01:33;14.90;99.90
66088;DHT22;52872;52.994;6.940;2022-10-16T18:04:10;14.80;99.90
66088;DHT22;52872;52.994;6.940;2022-10-16T18:06:39;14.80;99.90
66088;DHT22;52872;52.994;6.940;2022-10-16T18:09:08;14.70;99.90
66088;DHT22;52872;52.994;6.940;2022-10-16T18:11:36;14.70;99.90